createdAt,value
2023-01-17T00:00:10.546Z,3.56
2023-01-17T00:01:10.495Z,3.56
2023-01-17T00:02:10.501Z,3.55
2023-01-17T00:03:10.507Z,3.57
2023-01-17T00:04:10.514Z,3.56
2023-01-17T00:05:10.497Z,3.54
2023-01-17T00:06:10.496Z,3.53
2023-01-17T00:07:10.644Z,3.55
2023-01-17T00:08:10.501Z,3.56
2023-01-17T00:09:10.501Z,3.55
2023-01-17T00:10:10.510Z,3.54
2023-01-17T00:11:10.740Z,3.55
2023-01-17T00:12:10.492Z,3.55
2023-01-17T00:13:10.491Z,3.5
2023-01-17T00:14:10.497Z,3.49
2023-01-17T00:15:10.500Z,3.49
2023-01-17T00:16:10.541Z,3.5
2023-01-17T00:17:10.499Z,3.49
2023-01-17T00:18:10.558Z,3.51
2023-01-17T00:19:10.505Z,3.5
2023-01-17T00:20:10.499Z,3.5
2023-01-17T00:21:10.509Z,3.51
2023-01-17T00:22:10.501Z,3.54
2023-01-17T00:23:10.500Z,3.55
2023-01-17T00:24:10.499Z,3.56
2023-01-17T00:25:10.495Z,3.54
2023-01-17T00:26:10.494Z,3.55
2023-01-17T00:27:10.517Z,3.56
2023-01-17T00:28:10.504Z,3.56
2023-01-17T00:29:10.503Z,3.57
2023-01-17T00:30:10.518Z,3.57
2023-01-17T00:31:10.514Z,3.55
2023-01-17T00:32:10.528Z,3.57
2023-01-17T00:33:10.510Z,3.58
2023-01-17T00:34:10.498Z,3.55
2023-01-17T00:35:10.515Z,3.58
2023-01-17T00:36:10.504Z,3.55
2023-01-17T00:37:10.505Z,3.55
2023-01-17T00:38:10.500Z,3.54
2023-01-17T00:39:10.495Z,3.49
2023-01-17T00:40:10.515Z,3.49
2023-01-17T00:41:10.516Z,3.48
2023-01-17T00:42:10.537Z,3.44
2023-01-17T00:43:10.541Z,3.41
2023-01-17T00:44:10.501Z,3.36
2023-01-17T00:45:10.514Z,3.22
2023-01-17T00:46:10.621Z,3.2
2023-01-17T00:47:10.550Z,3.15
2023-01-17T00:48:10.532Z,3.09
2023-01-17T00:49:10.532Z,3.05
2023-01-17T00:50:10.522Z,3.02
2023-01-17T00:51:10.581Z,2.95
2023-01-17T00:52:10.563Z,2.93
2023-01-17T00:53:10.664Z,2.92
2023-01-17T00:54:10.545Z,2.91
2023-01-17T00:55:10.686Z,2.88
2023-01-17T00:56:10.671Z,2.88
2023-01-17T00:57:10.591Z,2.86
2023-01-17T00:58:10.569Z,2.84
2023-01-17T00:59:10.613Z,2.83
2023-01-17T01:00:10.618Z,2.83
2023-01-17T01:01:10.878Z,2.82
2023-01-17T01:02:10.781Z,2.8
2023-01-17T01:03:10.597Z,2.81
2023-01-17T01:04:10.653Z,2.79
2023-01-17T01:05:10.733Z,2.79
2023-01-17T01:06:10.819Z,2.8
2023-01-17T01:07:10.648Z,2.81
2023-01-17T01:08:10.657Z,2.81
2023-01-17T01:09:10.709Z,2.81
2023-01-17T01:10:10.525Z,2.83
2023-01-17T01:11:10.791Z,2.84
2023-01-17T01:12:10.887Z,2.86
2023-01-17T01:13:10.853Z,2.87
2023-01-17T01:14:10.743Z,2.88
2023-01-17T01:15:10.728Z,2.91
2023-01-17T01:16:10.816Z,2.92
2023-01-17T01:17:10.515Z,2.92
2023-01-17T01:18:10.783Z,2.93
2023-01-17T01:19:10.628Z,2.96
2023-01-17T01:20:10.801Z,2.97
2023-01-17T01:21:10.841Z,2.99
2023-01-17T01:22:10.509Z,3.01
2023-01-17T01:23:10.530Z,3.01
2023-01-17T01:24:10.803Z,2.99
2023-01-17T01:25:10.526Z,3.04
2023-01-17T01:26:10.955Z,3.07
2023-01-17T01:27:10.605Z,3.09
2023-01-17T01:28:10.925Z,3.09
2023-01-17T01:29:10.612Z,3.11
2023-01-17T01:30:10.858Z,3.1
2023-01-17T01:31:10.606Z,3.13
2023-01-17T01:32:10.786Z,3.15
2023-01-17T01:33:10.529Z,3.16
2023-01-17T01:34:10.505Z,3.18
2023-01-17T01:35:10.513Z,3.2
2023-01-17T01:36:10.516Z,3.21
2023-01-17T01:37:10.518Z,3.22
2023-01-17T01:38:10.504Z,3.22
2023-01-17T01:39:10.514Z,3.22
2023-01-17T01:40:10.498Z,3.22
2023-01-17T01:41:10.690Z,3.22
2023-01-17T01:42:10.500Z,3.23
2023-01-17T01:43:10.517Z,3.24
2023-01-17T01:44:10.506Z,3.23
2023-01-17T01:45:10.505Z,3.25
2023-01-17T01:46:10.508Z,3.23
2023-01-17T01:47:10.503Z,3.21
2023-01-17T01:48:10.503Z,3.17
2023-01-17T01:49:10.496Z,3.23
2023-01-17T01:50:10.506Z,3.25
2023-01-17T01:51:10.499Z,3.28
2023-01-17T01:52:10.516Z,3.27
2023-01-17T01:53:10.509Z,3.29
2023-01-17T01:54:10.506Z,3.28
2023-01-17T01:55:10.504Z,3.25
2023-01-17T01:56:10.517Z,3.25
2023-01-17T01:57:10.499Z,3.23
2023-01-17T01:58:10.506Z,3.21
2023-01-17T01:59:10.503Z,3.22
2023-01-17T02:00:10.496Z,3.22
2023-01-17T02:01:10.678Z,3.18
2023-01-17T02:02:10.498Z,3.17
2023-01-17T02:03:10.509Z,3.17
2023-01-17T02:04:10.529Z,3.19
2023-01-17T02:05:10.510Z,3.21
2023-01-17T02:06:10.524Z,3.2
2023-01-17T02:07:10.514Z,3.17
2023-01-17T02:08:10.511Z,3.16
2023-01-17T02:09:10.498Z,3.16
2023-01-17T02:10:10.630Z,3.17
2023-01-17T02:11:10.526Z,3.17
2023-01-17T02:12:10.513Z,3.17
2023-01-17T02:13:10.503Z,3.16
2023-01-17T02:14:10.521Z,3.13
2023-01-17T02:15:10.511Z,3.14
2023-01-17T02:16:10.543Z,3.1
2023-01-17T02:17:10.510Z,3.07
2023-01-17T02:18:10.505Z,3.06
2023-01-17T02:19:10.517Z,3.08
2023-01-17T02:20:10.497Z,3.05
2023-01-17T02:21:10.509Z,3.06
2023-01-17T02:22:10.566Z,3.06
2023-01-17T02:23:10.537Z,3.07
2023-01-17T02:24:10.503Z,3.05
2023-01-17T02:25:10.524Z,3
2023-01-17T02:26:10.499Z,2.96
2023-01-17T02:27:10.507Z,2.93
2023-01-17T02:28:10.509Z,2.89
2023-01-17T02:29:10.523Z,2.86
2023-01-17T02:30:10.512Z,2.87
2023-01-17T02:31:10.503Z,2.87
2023-01-17T02:32:10.512Z,2.86
2023-01-17T02:33:10.518Z,2.85
2023-01-17T02:34:10.499Z,2.85
2023-01-17T02:35:10.551Z,2.86
2023-01-17T02:36:10.723Z,2.86
2023-01-17T02:37:11.083Z,2.88
2023-01-17T02:38:11.457Z,2.92
2023-01-17T02:39:11.548Z,2.91
2023-01-17T02:40:10.682Z,2.93
2023-01-17T02:41:11.011Z,2.93
2023-01-17T02:42:11.109Z,2.92
2023-01-17T02:43:10.870Z,2.92
2023-01-17T02:44:10.535Z,2.94
2023-01-17T02:45:10.525Z,2.97
2023-01-17T02:46:10.560Z,2.97
2023-01-17T02:47:10.514Z,2.97
2023-01-17T02:48:10.631Z,2.96
2023-01-17T02:49:10.545Z,2.96
2023-01-17T02:50:10.544Z,2.99
2023-01-17T02:51:10.563Z,3
2023-01-17T02:52:10.558Z,2.98
2023-01-17T02:53:10.623Z,2.98
2023-01-17T02:54:10.561Z,2.98
2023-01-17T02:55:10.526Z,2.99
2023-01-17T02:56:10.547Z,2.98
2023-01-17T02:57:10.623Z,2.98
2023-01-17T02:58:10.750Z,2.99
2023-01-17T02:59:10.781Z,3
2023-01-17T03:00:10.670Z,2.99
2023-01-17T03:01:10.822Z,2.96
2023-01-17T03:02:11.084Z,2.96
2023-01-17T03:03:10.849Z,2.95
2023-01-17T03:04:11.041Z,2.97
2023-01-17T03:05:11.019Z,2.97
2023-01-17T03:06:10.781Z,2.95
2023-01-17T03:07:10.857Z,2.95
2023-01-17T03:08:10.993Z,2.9
2023-01-17T03:09:10.839Z,2.9
2023-01-17T03:10:11.090Z,2.88
2023-01-17T03:11:10.995Z,2.82
2023-01-17T03:12:10.751Z,2.8
2023-01-17T03:13:10.996Z,2.74
2023-01-17T03:14:10.725Z,2.61
2023-01-17T03:15:10.993Z,2.57
2023-01-17T03:16:12.743Z,2.44
2023-01-17T03:17:11.130Z,2.32
2023-01-17T03:18:10.856Z,2.19
2023-01-17T03:19:10.508Z,2
2023-01-17T03:20:10.977Z,1.88
2023-01-17T03:21:11.184Z,1.82
2023-01-17T03:22:10.893Z,1.71
2023-01-17T03:23:10.787Z,1.6
2023-01-17T03:24:10.528Z,1.48
2023-01-17T03:25:10.513Z,1.44
2023-01-17T03:26:10.513Z,1.4
2023-01-17T03:27:10.513Z,1.39
2023-01-17T03:28:10.502Z,1.39
2023-01-17T03:29:10.505Z,1.35
2023-01-17T03:30:10.545Z,1.38
2023-01-17T03:31:10.528Z,1.39
2023-01-17T03:32:10.512Z,1.42
2023-01-17T03:33:10.606Z,1.45
2023-01-17T03:34:10.536Z,1.49
2023-01-17T03:35:10.506Z,1.54
2023-01-17T03:36:10.530Z,1.56
2023-01-17T03:37:10.497Z,1.61
2023-01-17T03:38:10.522Z,1.62
2023-01-17T03:39:10.628Z,1.64
2023-01-17T03:40:10.506Z,1.64
2023-01-17T03:41:10.513Z,1.64
2023-01-17T03:42:10.523Z,1.65
2023-01-17T03:43:10.723Z,1.65
2023-01-17T03:44:10.528Z,1.65
2023-01-17T03:45:10.522Z,1.64
2023-01-17T03:46:10.579Z,1.63
2023-01-17T03:47:10.514Z,1.62
2023-01-17T03:48:10.507Z,1.58
2023-01-17T03:49:10.504Z,1.6
2023-01-17T03:50:10.508Z,1.61
2023-01-17T03:51:10.528Z,1.62
2023-01-17T03:52:10.527Z,1.62
2023-01-17T03:53:10.520Z,1.6
2023-01-17T03:54:10.515Z,1.54
2023-01-17T03:55:10.514Z,1.47
2023-01-17T03:56:10.541Z,1.36
2023-01-17T03:57:10.516Z,1.27
2023-01-17T03:58:10.529Z,1.19
2023-01-17T03:59:13.516Z,1.13
2023-01-17T04:00:10.521Z,1.09
2023-01-17T04:01:10.608Z,1.07
2023-01-17T04:02:10.633Z,1
2023-01-17T04:03:10.518Z,0.94
2023-01-17T04:04:10.543Z,0.9
2023-01-17T04:05:10.512Z,0.91
2023-01-17T04:06:10.503Z,0.89
2023-01-17T04:07:10.518Z,0.87
2023-01-17T04:08:10.523Z,0.88
2023-01-17T04:09:10.512Z,0.89
2023-01-17T04:10:10.511Z,0.89
2023-01-17T04:11:10.509Z,0.88
2023-01-17T04:12:10.504Z,0.88
2023-01-17T04:13:10.501Z,0.87
2023-01-17T04:14:10.515Z,0.86
2023-01-17T04:15:10.536Z,0.85
2023-01-17T04:16:10.585Z,0.84
2023-01-17T04:17:10.504Z,0.83
2023-01-17T04:18:10.522Z,0.8
2023-01-17T04:19:10.504Z,0.79
2023-01-17T04:20:10.518Z,0.75
2023-01-17T04:21:10.509Z,0.75
2023-01-17T04:22:10.512Z,0.73
2023-01-17T04:23:10.499Z,0.71
2023-01-17T04:24:10.509Z,0.69
2023-01-17T04:25:10.507Z,0.67
2023-01-17T04:26:10.522Z,0.61
2023-01-17T04:27:10.515Z,0.57
2023-01-17T04:28:10.522Z,0.5
2023-01-17T04:29:10.500Z,0.45
2023-01-17T04:30:10.561Z,0.39
2023-01-17T04:31:10.607Z,0.36
2023-01-17T04:32:10.510Z,0.34
2023-01-17T04:33:10.499Z,0.33
2023-01-17T04:34:10.500Z,0.31
2023-01-17T04:35:10.505Z,0.3
2023-01-17T04:36:10.506Z,0.28
2023-01-17T04:37:10.514Z,0.27
2023-01-17T04:38:10.525Z,0.27
2023-01-17T04:39:10.524Z,0.28
2023-01-17T04:40:10.537Z,0.28
2023-01-17T04:41:10.500Z,0.28
2023-01-17T04:42:10.505Z,0.29
2023-01-17T04:43:10.505Z,0.3
2023-01-17T04:44:10.638Z,0.29
2023-01-17T04:45:10.503Z,0.29
2023-01-17T04:46:10.545Z,0.29
2023-01-17T04:47:10.512Z,0.29
2023-01-17T04:48:10.502Z,0.3
2023-01-17T04:49:10.530Z,0.3
2023-01-17T04:50:10.520Z,0.29
2023-01-17T04:51:10.520Z,0.3
2023-01-17T04:52:10.507Z,0.31
2023-01-17T04:53:10.508Z,0.31
2023-01-17T04:54:10.500Z,0.32
2023-01-17T04:55:10.506Z,0.33
2023-01-17T04:56:10.504Z,0.32
2023-01-17T04:57:10.591Z,0.32
2023-01-17T04:58:10.567Z,0.31
2023-01-17T04:59:10.499Z,0.3
2023-01-17T05:00:11.976Z,0.29
2023-01-17T05:01:12.120Z,0.3
2023-01-17T05:02:11.172Z,0.27
2023-01-17T05:03:10.510Z,0.29
2023-01-17T05:04:10.547Z,0.29
2023-01-17T05:05:10.807Z,0.32
2023-01-17T05:06:11.032Z,0.32
2023-01-17T05:07:10.508Z,0.36
2023-01-17T05:08:10.517Z,0.38
2023-01-17T05:09:10.516Z,0.41
2023-01-17T05:10:10.499Z,0.44
2023-01-17T05:11:10.497Z,0.48
2023-01-17T05:12:10.508Z,0.49
2023-01-17T05:13:10.503Z,0.51
2023-01-17T05:14:10.519Z,0.53
2023-01-17T05:15:10.503Z,0.54
2023-01-17T05:16:10.588Z,0.54
2023-01-17T05:17:10.518Z,0.58
2023-01-17T05:18:10.513Z,0.6
2023-01-17T05:19:10.511Z,0.62
2023-01-17T05:20:10.511Z,0.63
2023-01-17T05:21:10.507Z,0.65
2023-01-17T05:22:10.509Z,0.68
2023-01-17T05:23:10.540Z,0.7
2023-01-17T05:24:10.510Z,0.72
2023-01-17T05:25:10.557Z,0.75
2023-01-17T05:26:10.504Z,0.77
2023-01-17T05:27:10.518Z,0.8
2023-01-17T05:28:10.503Z,0.83
2023-01-17T05:29:10.508Z,0.84
2023-01-17T05:30:10.514Z,0.85
2023-01-17T05:31:10.540Z,0.85
2023-01-17T05:32:10.527Z,0.87
2023-01-17T05:33:10.535Z,0.88
2023-01-17T05:34:10.497Z,0.86
2023-01-17T05:35:10.524Z,0.89
2023-01-17T05:36:10.516Z,0.91
2023-01-17T05:37:10.514Z,0.89
2023-01-17T05:38:10.515Z,0.93
2023-01-17T05:39:10.507Z,0.93
2023-01-17T05:40:10.543Z,0.93
2023-01-17T05:41:10.703Z,0.93
2023-01-17T05:42:10.512Z,0.93
2023-01-17T05:43:10.511Z,0.95
2023-01-17T05:44:10.509Z,0.96
2023-01-17T05:45:10.513Z,0.95
2023-01-17T05:46:10.560Z,0.94
2023-01-17T05:47:10.503Z,0.95
2023-01-17T05:48:10.504Z,0.94
2023-01-17T05:49:10.525Z,0.97
2023-01-17T05:50:10.506Z,0.99
2023-01-17T05:51:10.503Z,0.99
2023-01-17T05:52:10.676Z,0.98
2023-01-17T05:53:10.625Z,0.98
2023-01-17T05:54:10.537Z,0.97
2023-01-17T05:55:10.527Z,0.96
2023-01-17T05:56:10.512Z,0.95
2023-01-17T05:57:10.504Z,0.97
2023-01-17T05:58:10.511Z,0.98
2023-01-17T05:59:12.605Z,0.98
2023-01-17T06:00:10.502Z,0.99
2023-01-17T06:01:10.645Z,0.99
2023-01-17T06:02:10.512Z,0.98
2023-01-17T06:03:10.511Z,1.01
2023-01-17T06:04:10.505Z,1.03
2023-01-17T06:05:10.516Z,1.04
2023-01-17T06:06:10.511Z,1.05
2023-01-17T06:07:10.496Z,1.07
2023-01-17T06:08:10.501Z,1.07
2023-01-17T06:09:10.500Z,1.07
2023-01-17T06:10:10.503Z,1.08
2023-01-17T06:11:10.547Z,1.09
2023-01-17T06:12:10.881Z,1.1
2023-01-17T06:13:11.112Z,1.07
2023-01-17T06:14:11.457Z,1.08
2023-01-17T06:15:10.559Z,1.09
2023-01-17T06:16:10.961Z,1.08
2023-01-17T06:17:11.127Z,1.11
2023-01-17T06:18:11.385Z,1.11
2023-01-17T06:19:10.506Z,1.13
2023-01-17T06:20:10.517Z,1.15
2023-01-17T06:21:10.502Z,1.15
2023-01-17T06:22:10.512Z,1.15
2023-01-17T06:23:10.518Z,1.16
2023-01-17T06:24:10.672Z,1.16
2023-01-17T06:25:10.508Z,1.16
2023-01-17T06:26:10.501Z,1.18
2023-01-17T06:27:10.526Z,1.18
2023-01-17T06:28:10.505Z,1.18
2023-01-17T06:29:10.502Z,1.18
2023-01-17T06:30:10.533Z,1.17
2023-01-17T06:31:10.520Z,1.17
2023-01-17T06:32:10.509Z,1.17
2023-01-17T06:33:10.520Z,1.19
2023-01-17T06:34:10.498Z,1.17
2023-01-17T06:35:10.524Z,1.17
2023-01-17T06:36:10.509Z,1.16
2023-01-17T06:37:10.510Z,1.14
2023-01-17T06:38:10.500Z,1.15
2023-01-17T06:39:10.495Z,1.15
2023-01-17T06:40:10.708Z,1.15
2023-01-17T06:41:10.506Z,1.15
2023-01-17T06:42:10.517Z,1.14
2023-01-17T06:43:10.532Z,1.14
2023-01-17T06:44:10.796Z,1.15
2023-01-17T06:45:10.519Z,1.15
2023-01-17T06:46:10.709Z,1.15
2023-01-17T06:47:10.499Z,1.15
2023-01-17T06:48:10.722Z,1.12
2023-01-17T06:49:10.606Z,1.15
2023-01-17T06:50:10.756Z,1.15
2023-01-17T06:51:10.501Z,1.14
2023-01-17T06:52:10.608Z,1.14
2023-01-17T06:53:10.505Z,1.14
2023-01-17T06:54:10.964Z,1.14
2023-01-17T06:55:10.499Z,1.17
2023-01-17T06:56:10.496Z,1.18
2023-01-17T06:57:10.501Z,1.18
2023-01-17T06:58:10.515Z,1.18
2023-01-17T06:59:10.515Z,1.18
2023-01-17T07:00:10.516Z,1.19
2023-01-17T07:01:10.607Z,1.19
2023-01-17T07:02:10.502Z,1.19
2023-01-17T07:03:10.500Z,1.18
2023-01-17T07:04:10.589Z,1.18
2023-01-17T07:05:10.499Z,1.21
2023-01-17T07:06:10.521Z,1.21
2023-01-17T07:07:10.515Z,1.21
2023-01-17T07:08:10.507Z,1.2
2023-01-17T07:09:10.498Z,1.2
2023-01-17T07:10:10.525Z,1.19
2023-01-17T07:11:10.592Z,1.19
2023-01-17T07:12:10.608Z,1.2
2023-01-17T07:13:10.610Z,1.19
2023-01-17T07:14:10.693Z,1.17
2023-01-17T07:15:10.769Z,1.18
2023-01-17T07:16:10.913Z,1.17
2023-01-17T07:17:10.858Z,1.16
2023-01-17T07:18:10.511Z,1.17
2023-01-17T07:19:10.507Z,1.2
2023-01-17T07:20:10.515Z,1.19
2023-01-17T07:21:10.612Z,1.16
2023-01-17T07:22:10.503Z,1.17
2023-01-17T07:23:10.498Z,1.18
2023-01-17T07:24:10.697Z,1.18
2023-01-17T07:25:10.569Z,1.17
2023-01-17T07:26:10.527Z,1.16
2023-01-17T07:27:10.544Z,1.19
2023-01-17T07:28:10.890Z,1.19
2023-01-17T07:29:10.700Z,1.2
2023-01-17T07:30:10.898Z,1.17
2023-01-17T07:31:10.728Z,1.16
2023-01-17T07:32:10.907Z,1.13
2023-01-17T07:33:10.780Z,1.09
2023-01-17T07:34:11.089Z,1.11
2023-01-17T07:35:10.951Z,1.09
2023-01-17T07:36:11.194Z,1.09
2023-01-17T07:37:10.505Z,1.09
2023-01-17T07:38:10.520Z,1.1
2023-01-17T07:39:10.512Z,1.1
2023-01-17T07:40:10.507Z,1.13
2023-01-17T07:41:11.514Z,1.15
2023-01-17T07:42:10.520Z,1.13
2023-01-17T07:43:10.497Z,1.14
2023-01-17T07:44:10.516Z,1.14
2023-01-17T07:45:10.501Z,1.14
2023-01-17T07:46:10.502Z,1.14
2023-01-17T07:47:10.512Z,1.13
2023-01-17T07:48:10.500Z,1.15
2023-01-17T07:49:10.539Z,1.14
2023-01-17T07:50:10.505Z,1.14
2023-01-17T07:51:10.504Z,1.15
2023-01-17T07:52:10.502Z,1.14
2023-01-17T07:53:10.501Z,1.13
2023-01-17T07:54:10.526Z,1.12
2023-01-17T07:55:10.524Z,1.12
2023-01-17T07:56:10.519Z,1.12
2023-01-17T07:57:10.502Z,1.09
2023-01-17T07:58:10.561Z,1.1
2023-01-17T07:59:10.511Z,1.1
2023-01-17T08:00:10.520Z,1.09
2023-01-17T08:01:10.602Z,1.13
2023-01-17T08:02:10.501Z,1.14
2023-01-17T08:03:10.580Z,1.15
2023-01-17T08:04:10.549Z,1.14
2023-01-17T08:05:10.506Z,1.13
2023-01-17T08:06:10.507Z,1.12
2023-01-17T08:07:10.512Z,1.1
2023-01-17T08:08:10.509Z,1.12
2023-01-17T08:09:10.504Z,1.13
2023-01-17T08:10:10.498Z,1.13
2023-01-17T08:11:10.501Z,1.15
2023-01-17T08:12:10.527Z,1.15
2023-01-17T08:13:10.509Z,1.16
2023-01-17T08:14:10.507Z,1.15
2023-01-17T08:15:10.514Z,1.16
2023-01-17T08:16:10.537Z,1.14
2023-01-17T08:17:10.523Z,1.15
2023-01-17T08:18:10.696Z,1.15
2023-01-17T08:19:10.503Z,1.15
2023-01-17T08:20:10.526Z,1.15
2023-01-17T08:21:10.506Z,1.16
2023-01-17T08:22:10.500Z,1.17
2023-01-17T08:23:10.496Z,1.23
2023-01-17T08:24:10.567Z,1.26
2023-01-17T08:25:10.511Z,1.29
2023-01-17T08:26:10.528Z,1.29
2023-01-17T08:27:10.512Z,1.31
2023-01-17T08:28:10.499Z,1.31
2023-01-17T08:29:10.522Z,1.31
2023-01-17T08:30:10.510Z,1.32
2023-01-17T08:31:10.666Z,1.32
2023-01-17T08:32:10.506Z,1.33
2023-01-17T08:33:10.509Z,1.37
2023-01-17T08:34:10.646Z,1.36
2023-01-17T08:35:10.865Z,1.41
2023-01-17T08:36:10.550Z,1.41
2023-01-17T08:37:10.518Z,1.41
2023-01-17T08:38:10.701Z,1.4
2023-01-17T08:39:10.912Z,1.41
2023-01-17T08:40:10.639Z,1.43
2023-01-17T08:41:10.510Z,1.42
2023-01-17T08:42:10.511Z,1.43
2023-01-17T08:43:10.511Z,1.45
2023-01-17T08:44:10.513Z,1.46
2023-01-17T08:45:10.505Z,1.43
2023-01-17T08:46:10.568Z,1.39
2023-01-17T08:47:10.518Z,1.42
2023-01-17T08:48:10.510Z,1.4
2023-01-17T08:49:10.511Z,1.36
2023-01-17T08:50:10.512Z,1.34
2023-01-17T08:51:10.505Z,1.32
2023-01-17T08:52:10.503Z,1.29
2023-01-17T08:53:10.508Z,1.27
2023-01-17T08:54:10.502Z,1.25
2023-01-17T08:55:10.516Z,1.23
2023-01-17T08:56:10.511Z,1.23
2023-01-17T08:57:10.504Z,1.25
2023-01-17T08:58:10.513Z,1.27
2023-01-17T08:59:10.508Z,1.32
2023-01-17T09:00:10.564Z,1.38
2023-01-17T09:01:10.550Z,1.44
2023-01-17T09:02:10.571Z,1.5
2023-01-17T09:03:10.521Z,1.55
2023-01-17T09:04:10.582Z,1.64
2023-01-17T09:05:10.505Z,1.71
2023-01-17T09:06:10.512Z,1.79
2023-01-17T09:07:10.513Z,1.86
2023-01-17T09:08:10.500Z,1.9
2023-01-17T09:09:10.517Z,1.98
2023-01-17T09:10:10.513Z,1.97
2023-01-17T09:11:10.501Z,1.99
2023-01-17T09:12:10.509Z,2.01
2023-01-17T09:13:10.516Z,2.04
2023-01-17T09:14:10.513Z,2.08
2023-01-17T09:15:10.507Z,2.15
2023-01-17T09:16:10.551Z,2.2
2023-01-17T09:17:10.517Z,2.29
2023-01-17T09:18:10.502Z,2.39
2023-01-17T09:19:10.498Z,2.42
2023-01-17T09:20:10.519Z,2.46
2023-01-17T09:21:10.506Z,2.5
2023-01-17T09:22:10.510Z,2.52
2023-01-17T09:23:10.509Z,2.56
2023-01-17T09:24:10.500Z,2.53
2023-01-17T09:25:10.505Z,2.53
2023-01-17T09:26:10.523Z,2.58
2023-01-17T09:27:10.528Z,2.55
2023-01-17T09:28:10.513Z,2.58
2023-01-17T09:29:10.684Z,2.58
2023-01-17T09:30:10.508Z,2.6
2023-01-17T09:31:10.538Z,2.64
2023-01-17T09:32:10.499Z,2.64
2023-01-17T09:33:10.504Z,2.6
2023-01-17T09:34:10.512Z,2.54
2023-01-17T09:35:10.503Z,2.55
2023-01-17T09:36:10.508Z,2.56
2023-01-17T09:37:10.504Z,2.63
2023-01-17T09:38:10.519Z,2.62
2023-01-17T09:39:10.574Z,2.64
2023-01-17T09:40:10.626Z,2.62
2023-01-17T09:41:10.506Z,2.62
2023-01-17T09:42:10.672Z,2.6
2023-01-17T09:43:10.499Z,2.66
2023-01-17T09:44:10.505Z,2.75
2023-01-17T09:45:10.505Z,2.75
2023-01-17T09:46:10.525Z,2.65
2023-01-17T09:47:10.526Z,2.66
2023-01-17T09:48:11.650Z,2.66
2023-01-17T09:49:11.131Z,2.62
2023-01-17T09:50:10.264Z,2.53
2023-01-17T09:51:10.421Z,2.59
2023-01-17T09:52:10.663Z,2.61
2023-01-17T09:53:10.894Z,2.66
2023-01-17T09:54:10.506Z,2.73
2023-01-17T09:55:10.529Z,2.82
2023-01-17T09:56:10.526Z,2.93
2023-01-17T09:57:10.599Z,2.96
2023-01-17T09:58:10.638Z,3.03
2023-01-17T09:59:10.512Z,3.04
2023-01-17T10:00:10.503Z,3
2023-01-17T10:01:10.543Z,2.92
2023-01-17T10:02:10.695Z,2.94
2023-01-17T10:03:10.671Z,2.93
2023-01-17T10:04:10.621Z,2.93
2023-01-17T10:05:10.619Z,2.99
2023-01-17T10:06:10.505Z,2.98
2023-01-17T10:07:10.511Z,2.98
2023-01-17T10:08:10.503Z,3.01
2023-01-17T10:09:10.573Z,3.01
2023-01-17T10:10:10.610Z,3.01
2023-01-17T10:11:10.679Z,3.01
2023-01-17T10:12:10.719Z,2.93
2023-01-17T10:13:10.875Z,3.01
2023-01-17T10:14:10.785Z,3.09
2023-01-17T10:15:10.776Z,3.13
2023-01-17T10:16:10.575Z,3.13
2023-01-17T10:17:10.511Z,3.16
2023-01-17T10:18:25.328Z,3.27
2023-01-17T10:19:10.687Z,3.42
2023-01-17T10:20:10.541Z,3.5
2023-01-17T10:21:10.837Z,3.5
2023-01-17T10:22:10.508Z,3.51
2023-01-17T10:23:10.687Z,3.59
2023-01-17T10:24:10.585Z,3.73
2023-01-17T10:25:10.847Z,3.88
2023-01-17T10:26:10.544Z,4.04
2023-01-17T10:27:10.509Z,4.19
2023-01-17T10:28:10.518Z,4.26
2023-01-17T10:29:10.577Z,4.22
2023-01-17T10:30:10.736Z,4.09
2023-01-17T10:31:10.829Z,3.92
2023-01-17T10:32:10.817Z,3.98
2023-01-17T10:33:10.723Z,4.09
2023-01-17T10:34:10.551Z,4.13
2023-01-17T10:35:10.565Z,4.13
2023-01-17T10:36:10.506Z,4.13
2023-01-17T10:37:10.513Z,4.08
2023-01-17T10:38:10.523Z,3.97
2023-01-17T10:39:10.525Z,3.9
2023-01-17T10:40:10.507Z,3.8
2023-01-17T10:41:10.505Z,3.82
2023-01-17T10:42:10.531Z,3.9
2023-01-17T10:43:10.514Z,3.9
2023-01-17T10:44:10.526Z,3.92
2023-01-17T10:45:10.502Z,3.85
2023-01-17T10:46:10.538Z,3.91
2023-01-17T10:47:10.516Z,3.93
2023-01-17T10:48:10.546Z,3.87
2023-01-17T10:49:10.500Z,3.74
2023-01-17T10:50:10.500Z,3.77
2023-01-17T10:51:10.504Z,3.77
2023-01-17T10:52:10.642Z,3.68
2023-01-17T10:53:10.847Z,3.64
2023-01-17T10:54:10.526Z,3.58
2023-01-17T10:55:10.510Z,3.51
2023-01-17T10:56:10.608Z,3.41
2023-01-17T10:57:10.507Z,3.38
2023-01-17T10:58:10.775Z,3.37
2023-01-17T10:59:10.557Z,3.4
2023-01-17T11:00:10.692Z,3.41
2023-01-17T11:01:10.648Z,3.4
2023-01-17T11:02:10.900Z,3.41
2023-01-17T11:03:10.663Z,3.46
2023-01-17T11:04:10.554Z,3.49
2023-01-17T11:05:10.517Z,3.5
2023-01-17T11:06:10.658Z,3.47
2023-01-17T11:07:10.507Z,3.49
2023-01-17T11:08:10.766Z,3.47
2023-01-17T11:09:10.519Z,3.45
2023-01-17T11:10:10.639Z,3.47
2023-01-17T11:11:10.508Z,3.49
2023-01-17T11:12:10.759Z,3.47
2023-01-17T11:13:10.504Z,3.43
2023-01-17T11:14:10.513Z,3.46
2023-01-17T11:15:10.512Z,3.57
2023-01-17T11:16:10.526Z,3.65
2023-01-17T11:17:10.498Z,3.72
2023-01-17T11:18:10.524Z,3.71
2023-01-17T11:19:10.526Z,3.61
2023-01-17T11:20:10.524Z,3.46
2023-01-17T11:21:10.524Z,3.41
2023-01-17T11:22:10.560Z,3.34
2023-01-17T11:23:10.518Z,3.33
2023-01-17T11:24:10.522Z,3.31
2023-01-17T11:25:10.504Z,3.25
2023-01-17T11:26:10.504Z,3.42
2023-01-17T11:27:10.503Z,3.63
2023-01-17T11:28:10.507Z,3.75
2023-01-17T11:29:10.520Z,3.94
2023-01-17T11:30:10.506Z,4.19
2023-01-17T11:31:10.530Z,4.3
2023-01-17T11:32:10.512Z,4.35
2023-01-17T11:33:10.506Z,4.29
2023-01-17T11:34:10.516Z,4.19
2023-01-17T11:35:10.508Z,4.08
2023-01-17T11:36:10.558Z,3.84
2023-01-17T11:37:10.512Z,3.78
2023-01-17T11:38:10.516Z,3.67
2023-01-17T11:39:10.508Z,3.55
2023-01-17T11:40:10.509Z,3.44
2023-01-17T11:41:10.502Z,3.39
2023-01-17T11:42:10.502Z,3.35
2023-01-17T11:43:10.527Z,3.32
2023-01-17T11:44:10.507Z,3.27
2023-01-17T11:45:10.519Z,3.19
2023-01-17T11:46:10.546Z,3.09
2023-01-17T11:47:10.496Z,3.04
2023-01-17T11:48:10.505Z,2.94
2023-01-17T11:49:10.592Z,2.92
2023-01-17T11:50:10.500Z,2.87
2023-01-17T11:51:10.514Z,2.85
2023-01-17T11:52:10.514Z,2.79
2023-01-17T11:53:10.505Z,2.77
2023-01-17T11:54:10.513Z,2.75
2023-01-17T11:55:10.509Z,2.76
2023-01-17T11:56:10.502Z,2.93
2023-01-17T11:57:10.533Z,3.02
2023-01-17T11:58:10.542Z,3.31
2023-01-17T11:59:10.522Z,3.75
2023-01-17T12:00:10.507Z,4.22
2023-01-17T12:01:10.539Z,4.53
2023-01-17T12:02:10.516Z,4.71
2023-01-17T12:03:10.527Z,4.81
2023-01-17T12:04:10.599Z,4.77
2023-01-17T12:05:10.547Z,4.84
2023-01-17T12:06:10.586Z,4.87
2023-01-17T12:07:10.854Z,4.86
2023-01-17T12:08:10.610Z,4.69
2023-01-17T12:09:10.515Z,4.45
2023-01-17T12:10:10.682Z,4.29
2023-01-17T12:11:10.861Z,4.13
2023-01-17T12:12:10.718Z,3.95
2023-01-17T12:13:10.508Z,3.72
2023-01-17T12:14:10.503Z,3.52
2023-01-17T12:15:10.544Z,3.55
2023-01-17T12:16:10.574Z,3.51
2023-01-17T12:17:10.511Z,3.52
2023-01-17T12:18:10.597Z,3.79
2023-01-17T12:19:10.509Z,4.08
2023-01-17T12:20:10.531Z,4.26
2023-01-17T12:21:10.510Z,4.54
2023-01-17T12:22:10.506Z,4.59
2023-01-17T12:23:10.517Z,4.58
2023-01-17T12:24:10.509Z,4.49
2023-01-17T12:25:10.517Z,4.64
2023-01-17T12:26:10.521Z,4.67
2023-01-17T12:27:10.514Z,4.58
2023-01-17T12:28:10.504Z,4.69
2023-01-17T12:29:10.541Z,4.79
2023-01-17T12:30:10.519Z,4.82
2023-01-17T12:31:10.650Z,4.82
2023-01-17T12:32:10.500Z,4.84
2023-01-17T12:33:10.839Z,4.89
2023-01-17T12:34:10.513Z,5.05
2023-01-17T12:35:10.678Z,5.08
2023-01-17T12:36:10.555Z,5.06
2023-01-17T12:37:10.770Z,5.09
2023-01-17T12:38:12.619Z,5.16
2023-01-17T12:39:10.505Z,5.15
2023-01-17T12:40:10.503Z,5.05
2023-01-17T12:41:10.507Z,4.92
2023-01-17T12:42:10.810Z,4.8
2023-01-17T12:43:10.499Z,4.66
2023-01-17T12:44:10.522Z,4.59
2023-01-17T12:45:10.526Z,4.49
2023-01-17T12:46:10.566Z,4.42
2023-01-17T12:47:10.513Z,4.41
2023-01-17T12:48:10.664Z,4.36
2023-01-17T12:49:10.499Z,4.27
2023-01-17T12:50:10.517Z,4.19
2023-01-17T12:51:10.506Z,4.1
2023-01-17T12:52:10.495Z,3.98
2023-01-17T12:53:10.503Z,3.92
2023-01-17T12:54:10.500Z,3.89
2023-01-17T12:55:10.504Z,3.92
2023-01-17T12:56:10.502Z,3.98
2023-01-17T12:57:12.081Z,4.06
2023-01-17T12:58:10.511Z,4.12
2023-01-17T12:59:10.503Z,4.15
2023-01-17T13:00:10.506Z,4.1
2023-01-17T13:01:10.570Z,4.09
2023-01-17T13:02:10.552Z,4.04
2023-01-17T13:03:10.510Z,3.98
2023-01-17T13:04:10.499Z,3.91
2023-01-17T13:05:10.508Z,3.91
2023-01-17T13:06:10.507Z,3.95
2023-01-17T13:07:10.507Z,3.94
2023-01-17T13:08:10.496Z,3.92
2023-01-17T13:09:10.506Z,3.97
2023-01-17T13:10:10.500Z,4.03
2023-01-17T13:11:10.500Z,4.06
2023-01-17T13:12:10.495Z,4.12
2023-01-17T13:13:10.520Z,4.1
2023-01-17T13:14:10.518Z,4.07
2023-01-17T13:15:10.499Z,4.07
2023-01-17T13:16:10.516Z,3.99
2023-01-17T13:17:10.518Z,3.92
2023-01-17T13:18:10.517Z,4.03
2023-01-17T13:19:10.507Z,4.13
2023-01-17T13:20:10.526Z,4.28
2023-01-17T13:21:10.547Z,4.52